sensor_id;sensor_type;location;lat;lon;timestamp;P1;durP1;ratioP1;P2;durP2;ratioP2
49326;SDS011;35819;44.498;0.166;2022-09-27T00:17:37;20.95;;;5.78;;
49326;SDS011;35819;44.498;0.166;2022-09-27T00:35:26;11.73;;;5.88;;
49326;SDS011;35819;44.498;0.166;2022-09-27T00:45:53;26.95;;;7.18;;
49326;SDS011;35819;44.498;0.166;2022-09-27T00:55:58;29.92;;;7.97;;
49326;SDS011;35819;44.498;0.166;2022-09-27T01:05:46;32.17;;;9.48;;
49326;SDS011;35819;44.498;0.166;2022-09-27T06:34:14;26.02;;;7.82;;
49326;SDS011;35819;44.498;0.166;2022-09-27T06:37:54;13.95;;;7.38;;
49326;SDS011;35819;44.498;0.166;2022-09-27T06:43:47;30.00;;;9.88;;
49326;SDS011;35819;44.498;0.166;2022-09-27T06:46:21;19.52;;;6.47;;
49326;SDS011;35819;44.498;0.166;2022-09-27T06:49:36;23.15;;;6.00;;
49326;SDS011;35819;44.498;0.166;2022-09-27T06:59:02;27.90;;;7.20;;
49326;SDS011;35819;44.498;0.166;2022-09-27T07:07:24;18.15;;;4.00;;
49326;SDS011;35819;44.498;0.166;2022-09-27T07:10:23;21.67;;;8.90;;
49326;SDS011;35819;44.498;0.166;2022-09-27T07:12:53;25.75;;;9.52;;
49326;SDS011;35819;44.498;0.166;2022-09-27T07:15:30;28.25;;;8.65;;
49326;SDS011;35819;44.498;0.166;2022-09-27T07:18:12;24.95;;;7.47;;
49326;SDS011;35819;44.498;0.166;2022-09-27T07:21:14;18.92;;;8.95;;
49326;SDS011;35819;44.498;0.166;2022-09-27T07:23:41;16.67;;;6.55;;
49326;SDS011;35819;44.498;0.166;2022-09-27T07:26:38;20.50;;;7.20;;
49326;SDS011;35819;44.498;0.166;2022-09-27T07:29:05;13.95;;;6.05;;
49326;SDS011;35819;44.498;0.166;2022-09-27T07:31:43;25.35;;;7.53;;
49326;SDS011;35819;44.498;0.166;2022-09-27T07:34:28;26.02;;;7.72;;
49326;SDS011;35819;44.498;0.166;2022-09-27T07:37:07;32.25;;;7.07;;
49326;SDS011;35819;44.498;0.166;2022-09-27T07:40:04;21.20;;;7.95;;
49326;SDS011;35819;44.498;0.166;2022-09-27T07:43:28;12.05;;;4.85;;
49326;SDS011;35819;44.498;0.166;2022-09-27T07:46:15;18.95;;;4.93;;
49326;SDS011;35819;44.498;0.166;2022-09-27T07:48:41;37.38;;;8.27;;
49326;SDS011;35819;44.498;0.166;2022-09-27T07:51:06;23.17;;;8.02;;
49326;SDS011;35819;44.498;0.166;2022-09-27T07:53:37;24.85;;;8.40;;
49326;SDS011;35819;44.498;0.166;2022-09-27T07:56:09;12.75;;;6.75;;
49326;SDS011;35819;44.498;0.166;2022-09-27T07:58:43;21.92;;;7.63;;
49326;SDS011;35819;44.498;0.166;2022-09-27T08:01:13;26.38;;;8.25;;
49326;SDS011;35819;44.498;0.166;2022-09-27T08:03:38;22.13;;;6.45;;
49326;SDS011;35819;44.498;0.166;2022-09-27T08:06:10;27.33;;;9.02;;
49326;SDS011;35819;44.498;0.166;2022-09-27T08:08:37;27.45;;;9.00;;
49326;SDS011;35819;44.498;0.166;2022-09-27T08:11:27;16.35;;;4.93;;
49326;SDS011;35819;44.498;0.166;2022-09-27T08:13:53;38.25;;;7.78;;
49326;SDS011;35819;44.498;0.166;2022-09-27T08:16:45;15.82;;;6.32;;
49326;SDS011;35819;44.498;0.166;2022-09-27T08:19:13;29.30;;;9.15;;
49326;SDS011;35819;44.498;0.166;2022-09-27T08:21:57;12.18;;;4.95;;
49326;SDS011;35819;44.498;0.166;2022-09-27T08:24:59;23.73;;;6.25;;
49326;SDS011;35819;44.498;0.166;2022-09-27T08:27:38;27.88;;;5.45;;
49326;SDS011;35819;44.498;0.166;2022-09-27T08:30:12;32.50;;;9.70;;
49326;SDS011;35819;44.498;0.166;2022-09-27T08:33:24;27.63;;;6.40;;
49326;SDS011;35819;44.498;0.166;2022-09-27T08:35:33;17.23;;;5.30;;
49326;SDS011;35819;44.498;0.166;2022-09-27T08:37:59;11.80;;;6.30;;
49326;SDS011;35819;44.498;0.166;2022-09-27T08:40:42;18.38;;;6.10;;
49326;SDS011;35819;44.498;0.166;2022-09-27T08:43:44;17.92;;;7.75;;
49326;SDS011;35819;44.498;0.166;2022-09-27T08:48:58;11.98;;;7.45;;
49326;SDS011;35819;44.498;0.166;2022-09-27T08:51:31;20.40;;;6.45;;
49326;SDS011;35819;44.498;0.166;2022-09-27T08:54:07;20.38;;;6.10;;
49326;SDS011;35819;44.498;0.166;2022-09-27T08:56:43;17.70;;;9.52;;
49326;SDS011;35819;44.498;0.166;2022-09-27T08:59:13;13.43;;;4.45;;
49326;SDS011;35819;44.498;0.166;2022-09-27T09:01:51;11.35;;;3.20;;
49326;SDS011;35819;44.498;0.166;2022-09-27T09:04:22;6.97;;;4.18;;
49326;SDS011;35819;44.498;0.166;2022-09-27T09:06:57;28.90;;;5.55;;
49326;SDS011;35819;44.498;0.166;2022-09-27T09:25:44;7.90;;;3.10;;
49326;SDS011;35819;44.498;0.166;2022-09-27T09:31:36;44.22;;;4.85;;
49326;SDS011;35819;44.498;0.166;2022-09-27T09:44:41;8.77;;;2.42;;
49326;SDS011;35819;44.498;0.166;2022-09-27T09:50:03;24.88;;;2.95;;
49326;SDS011;35819;44.498;0.166;2022-09-27T09:52:50;9.93;;;3.72;;
49326;SDS011;35819;44.498;0.166;2022-09-27T09:55:22;19.67;;;2.53;;
49326;SDS011;35819;44.498;0.166;2022-09-27T09:58:04;4.95;;;2.95;;
49326;SDS011;35819;44.498;0.166;2022-09-27T10:00:50;10.60;;;2.33;;
49326;SDS011;35819;44.498;0.166;2022-09-27T10:03:19;13.70;;;5.18;;
49326;SDS011;35819;44.498;0.166;2022-09-27T10:05:45;18.20;;;3.15;;
49326;SDS011;35819;44.498;0.166;2022-09-27T10:08:16;7.78;;;1.88;;
49326;SDS011;35819;44.498;0.166;2022-09-27T10:10:44;12.05;;;4.15;;
49326;SDS011;35819;44.498;0.166;2022-09-27T10:13:13;14.48;;;4.45;;
49326;SDS011;35819;44.498;0.166;2022-09-27T10:15:41;13.63;;;2.55;;
49326;SDS011;35819;44.498;0.166;2022-09-27T10:18:14;6.10;;;1.90;;
49326;SDS011;35819;44.498;0.166;2022-09-27T10:23:14;10.35;;;2.90;;
49326;SDS011;35819;44.498;0.166;2022-09-27T10:25:51;29.50;;;3.80;;
49326;SDS011;35819;44.498;0.166;2022-09-27T10:28:29;9.38;;;3.50;;
49326;SDS011;35819;44.498;0.166;2022-09-27T10:31:09;10.45;;;2.50;;
49326;SDS011;35819;44.498;0.166;2022-09-27T10:33:38;7.25;;;2.25;;
49326;SDS011;35819;44.498;0.166;2022-09-27T10:36:25;8.88;;;2.38;;
49326;SDS011;35819;44.498;0.166;2022-09-27T10:38:55;2.15;;;1.48;;
49326;SDS011;35819;44.498;0.166;2022-09-27T10:46:53;12.38;;;2.35;;
49326;SDS011;35819;44.498;0.166;2022-09-27T10:52:01;7.47;;;2.22;;
49326;SDS011;35819;44.498;0.166;2022-09-27T10:54:33;24.48;;;1.90;;
49326;SDS011;35819;44.498;0.166;2022-09-27T11:09:57;5.10;;;1.90;;
49326;SDS011;35819;44.498;0.166;2022-09-27T11:12:33;18.17;;;2.28;;
49326;SDS011;35819;44.498;0.166;2022-09-27T11:34:56;5.32;;;1.63;;
49326;SDS011;35819;44.498;0.166;2022-09-27T12:10:28;3.72;;;1.67;;
49326;SDS011;35819;44.498;0.166;2022-09-27T12:12:55;7.10;;;3.20;;
49326;SDS011;35819;44.498;0.166;2022-09-27T12:17:59;5.40;;;1.67;;
49326;SDS011;35819;44.498;0.166;2022-09-27T12:23:02;7.82;;;2.63;;
49326;SDS011;35819;44.498;0.166;2022-09-27T12:25:34;2.92;;;0.98;;
49326;SDS011;35819;44.498;0.166;2022-09-27T12:28:13;3.40;;;1.05;;
49326;SDS011;35819;44.498;0.166;2022-09-27T12:31:04;4.20;;;1.48;;
49326;SDS011;35819;44.498;0.166;2022-09-27T12:33:49;12.63;;;1.35;;
49326;SDS011;35819;44.498;0.166;2022-09-27T12:36:17;1.90;;;0.88;;
49326;SDS011;35819;44.498;0.166;2022-09-27T12:41:17;22.17;;;4.68;;
49326;SDS011;35819;44.498;0.166;2022-09-27T12:43:47;9.18;;;3.58;;
49326;SDS011;35819;44.498;0.166;2022-09-27T12:46:34;5.85;;;2.17;;
49326;SDS011;35819;44.498;0.166;2022-09-27T12:51:55;6.82;;;2.17;;
49326;SDS011;35819;44.498;0.166;2022-09-27T12:54:44;16.27;;;3.33;;
49326;SDS011;35819;44.498;0.166;2022-09-27T12:57:41;5.57;;;2.38;;
49326;SDS011;35819;44.498;0.166;2022-09-27T13:00:18;15.95;;;2.58;;
49326;SDS011;35819;44.498;0.166;2022-09-27T13:13:18;4.75;;;2.05;;
49326;SDS011;35819;44.498;0.166;2022-09-27T13:15:46;9.15;;;2.65;;
49326;SDS011;35819;44.498;0.166;2022-09-27T13:27:48;12.50;;;3.15;;
49326;SDS011;35819;44.498;0.166;2022-09-27T13:30:41;8.65;;;2.22;;
49326;SDS011;35819;44.498;0.166;2022-09-27T13:49:36;9.60;;;2.40;;
49326;SDS011;35819;44.498;0.166;2022-09-27T13:52:04;4.05;;;1.77;;
49326;SDS011;35819;44.498;0.166;2022-09-27T13:57:37;10.07;;;2.05;;
49326;SDS011;35819;44.498;0.166;2022-09-27T14:00:05;13.65;;;2.60;;
49326;SDS011;35819;44.498;0.166;2022-09-27T14:02:53;9.35;;;4.53;;
49326;SDS011;35819;44.498;0.166;2022-09-27T14:05:25;8.85;;;2.22;;
49326;SDS011;35819;44.498;0.166;2022-09-27T14:07:56;7.13;;;3.75;;
49326;SDS011;35819;44.498;0.166;2022-09-27T14:10:26;14.32;;;3.60;;
49326;SDS011;35819;44.498;0.166;2022-09-27T14:12:53;11.38;;;3.85;;
49326;SDS011;35819;44.498;0.166;2022-09-27T14:15:21;15.77;;;4.10;;
49326;SDS011;35819;44.498;0.166;2022-09-27T14:17:49;20.95;;;4.05;;
49326;SDS011;35819;44.498;0.166;2022-09-27T14:23:17;8.18;;;2.13;;
49326;SDS011;35819;44.498;0.166;2022-09-27T14:25:48;9.13;;;4.43;;
49326;SDS011;35819;44.498;0.166;2022-09-27T14:28:20;6.95;;;5.60;;
49326;SDS011;35819;44.498;0.166;2022-09-27T14:31:03;8.50;;;1.73;;
49326;SDS011;35819;44.498;0.166;2022-09-27T14:33:42;8.85;;;3.67;;
49326;SDS011;35819;44.498;0.166;2022-09-27T14:39:12;15.23;;;2.22;;
49326;SDS011;35819;44.498;0.166;2022-09-27T14:41:44;5.90;;;2.03;;
49326;SDS011;35819;44.498;0.166;2022-09-27T14:44:15;11.50;;;4.63;;
49326;SDS011;35819;44.498;0.166;2022-09-27T14:46:43;9.73;;;2.55;;
49326;SDS011;35819;44.498;0.166;2022-09-27T14:49:21;14.20;;;2.60;;
49326;SDS011;35819;44.498;0.166;2022-09-27T14:51:52;10.65;;;3.00;;
49326;SDS011;35819;44.498;0.166;2022-09-27T14:54:25;4.82;;;1.42;;
49326;SDS011;35819;44.498;0.166;2022-09-27T14:56:54;3.70;;;1.58;;
49326;SDS011;35819;44.498;0.166;2022-09-27T14:59:26;6.68;;;3.10;;
49326;SDS011;35819;44.498;0.166;2022-09-27T15:01:56;8.85;;;2.30;;
49326;SDS011;35819;44.498;0.166;2022-09-27T15:04:27;11.27;;;3.55;;
49326;SDS011;35819;44.498;0.166;2022-09-27T15:06:57;4.32;;;2.00;;
49326;SDS011;35819;44.498;0.166;2022-09-27T15:09:24;5.95;;;2.13;;
49326;SDS011;35819;44.498;0.166;2022-09-27T15:11:53;7.82;;;2.58;;
49326;SDS011;35819;44.498;0.166;2022-09-27T15:14:24;5.15;;;1.88;;
49326;SDS011;35819;44.498;0.166;2022-09-27T15:16:53;12.38;;;4.70;;
49326;SDS011;35819;44.498;0.166;2022-09-27T15:19:22;11.35;;;3.42;;
49326;SDS011;35819;44.498;0.166;2022-09-27T15:21:53;8.70;;;3.42;;
49326;SDS011;35819;44.498;0.166;2022-09-27T15:27:04;8.73;;;3.38;;
49326;SDS011;35819;44.498;0.166;2022-09-27T15:29:39;8.90;;;3.33;;
49326;SDS011;35819;44.498;0.166;2022-09-27T15:32:05;11.60;;;4.93;;
49326;SDS011;35819;44.498;0.166;2022-09-27T15:34:32;4.78;;;1.85;;
49326;SDS011;35819;44.498;0.166;2022-09-27T15:37:01;30.15;;;6.88;;
49326;SDS011;35819;44.498;0.166;2022-09-27T15:39:29;9.02;;;2.85;;
49326;SDS011;35819;44.498;0.166;2022-09-27T15:42:10;14.23;;;4.13;;
49326;SDS011;35819;44.498;0.166;2022-09-27T15:44:53;7.03;;;2.83;;
49326;SDS011;35819;44.498;0.166;2022-09-27T15:49:58;9.85;;;4.00;;
49326;SDS011;35819;44.498;0.166;2022-09-27T15:52:49;7.90;;;3.90;;
49326;SDS011;35819;44.498;0.166;2022-09-27T15:55:17;16.00;;;4.13;;
49326;SDS011;35819;44.498;0.166;2022-09-27T15:57:46;12.07;;;3.67;;
49326;SDS011;35819;44.498;0.166;2022-09-27T16:00:16;13.35;;;3.55;;
49326;SDS011;35819;44.498;0.166;2022-09-27T16:02:43;8.20;;;2.42;;
49326;SDS011;35819;44.498;0.166;2022-09-27T16:05:09;8.10;;;3.47;;
49326;SDS011;35819;44.498;0.166;2022-09-27T16:07:35;8.15;;;2.53;;
49326;SDS011;35819;44.498;0.166;2022-09-27T16:10:01;5.70;;;2.78;;
49326;SDS011;35819;44.498;0.166;2022-09-27T16:12:37;6.93;;;2.28;;
49326;SDS011;35819;44.498;0.166;2022-09-27T16:15:03;11.68;;;2.53;;
49326;SDS011;35819;44.498;0.166;2022-09-27T16:17:29;13.05;;;4.88;;
49326;SDS011;35819;44.498;0.166;2022-09-27T16:19:54;4.45;;;1.92;;
49326;SDS011;35819;44.498;0.166;2022-09-27T16:22:21;9.18;;;2.78;;
49326;SDS011;35819;44.498;0.166;2022-09-27T16:24:47;9.65;;;4.15;;
49326;SDS011;35819;44.498;0.166;2022-09-27T16:27:21;8.35;;;4.72;;
49326;SDS011;35819;44.498;0.166;2022-09-27T16:29:50;25.00;;;4.00;;
49326;SDS011;35819;44.498;0.166;2022-09-27T16:32:16;9.23;;;2.80;;
49326;SDS011;35819;44.498;0.166;2022-09-27T16:34:42;9.82;;;3.10;;
49326;SDS011;35819;44.498;0.166;2022-09-27T16:37:08;15.65;;;5.72;;
49326;SDS011;35819;44.498;0.166;2022-09-27T16:39:35;12.55;;;3.63;;
49326;SDS011;35819;44.498;0.166;2022-09-27T16:42:01;16.75;;;3.97;;
49326;SDS011;35819;44.498;0.166;2022-09-27T16:44:31;10.07;;;3.03;;
49326;SDS011;35819;44.498;0.166;2022-09-27T16:47:04;15.32;;;4.05;;
49326;SDS011;35819;44.498;0.166;2022-09-27T16:49:31;11.95;;;4.63;;
49326;SDS011;35819;44.498;0.166;2022-09-27T16:52:15;10.23;;;4.30;;
49326;SDS011;35819;44.498;0.166;2022-09-27T16:54:41;23.65;;;5.25;;
49326;SDS011;35819;44.498;0.166;2022-09-27T16:57:07;19.02;;;6.55;;
49326;SDS011;35819;44.498;0.166;2022-09-27T16:59:34;10.23;;;4.57;;
49326;SDS011;35819;44.498;0.166;2022-09-27T17:02:00;17.27;;;4.78;;
49326;SDS011;35819;44.498;0.166;2022-09-27T17:04:26;17.98;;;4.63;;
49326;SDS011;35819;44.498;0.166;2022-09-27T17:06:54;17.77;;;5.53;;
49326;SDS011;35819;44.498;0.166;2022-09-27T17:09:20;31.08;;;4.95;;
49326;SDS011;35819;44.498;0.166;2022-09-27T17:11:46;14.40;;;4.38;;
49326;SDS011;35819;44.498;0.166;2022-09-27T17:14:13;22.52;;;6.05;;
49326;SDS011;35819;44.498;0.166;2022-09-27T17:16:41;17.00;;;5.85;;
49326;SDS011;35819;44.498;0.166;2022-09-27T17:19:10;17.50;;;8.68;;
49326;SDS011;35819;44.498;0.166;2022-09-27T17:21:35;19.27;;;6.15;;
49326;SDS011;35819;44.498;0.166;2022-09-27T17:24:01;16.70;;;6.18;;
49326;SDS011;35819;44.498;0.166;2022-09-27T17:26:27;17.20;;;5.78;;
49326;SDS011;35819;44.498;0.166;2022-09-27T17:28:56;31.48;;;7.45;;
49326;SDS011;35819;44.498;0.166;2022-09-27T17:31:24;37.38;;;8.25;;
49326;SDS011;35819;44.498;0.166;2022-09-27T17:33:51;27.42;;;8.98;;
49326;SDS011;35819;44.498;0.166;2022-09-27T17:36:20;31.30;;;9.10;;
49326;SDS011;35819;44.498;0.166;2022-09-27T17:38:49;21.92;;;7.10;;
49326;SDS011;35819;44.498;0.166;2022-09-27T17:41:16;16.17;;;6.95;;
49326;SDS011;35819;44.498;0.166;2022-09-27T17:43:44;28.27;;;6.65;;
49326;SDS011;35819;44.498;0.166;2022-09-27T17:46:17;37.05;;;7.93;;
49326;SDS011;35819;44.498;0.166;2022-09-27T17:48:44;18.55;;;5.93;;
49326;SDS011;35819;44.498;0.166;2022-09-27T17:51:29;35.78;;;11.23;;
49326;SDS011;35819;44.498;0.166;2022-09-27T17:53:56;17.42;;;7.25;;
49326;SDS011;35819;44.498;0.166;2022-09-27T17:56:22;22.65;;;6.53;;
49326;SDS011;35819;44.498;0.166;2022-09-27T17:58:51;30.20;;;6.03;;
49326;SDS011;35819;44.498;0.166;2022-09-27T18:01:19;38.60;;;11.15;;
49326;SDS011;35819;44.498;0.166;2022-09-27T18:03:46;20.23;;;6.72;;
49326;SDS011;35819;44.498;0.166;2022-09-27T18:06:13;18.50;;;8.05;;
49326;SDS011;35819;44.498;0.166;2022-09-27T18:08:40;27.45;;;5.13;;
49326;SDS011;35819;44.498;0.166;2022-09-27T18:11:10;31.77;;;10.15;;
49326;SDS011;35819;44.498;0.166;2022-09-27T18:13:37;25.52;;;9.73;;
49326;SDS011;35819;44.498;0.166;2022-09-27T18:18:41;27.13;;;8.75;;
49326;SDS011;35819;44.498;0.166;2022-09-27T18:21:09;35.22;;;8.80;;
49326;SDS011;35819;44.498;0.166;2022-09-27T18:23:38;24.25;;;9.10;;
49326;SDS011;35819;44.498;0.166;2022-09-27T18:26:04;37.72;;;8.88;;
49326;SDS011;35819;44.498;0.166;2022-09-27T18:28:37;22.83;;;5.72;;
49326;SDS011;35819;44.498;0.166;2022-09-27T18:31:05;34.42;;;8.15;;
49326;SDS011;35819;44.498;0.166;2022-09-27T18:33:33;36.10;;;8.35;;
49326;SDS011;35819;44.498;0.166;2022-09-27T18:36:00;38.28;;;7.60;;
49326;SDS011;35819;44.498;0.166;2022-09-27T18:38:35;37.67;;;8.82;;
49326;SDS011;35819;44.498;0.166;2022-09-27T18:41:05;27.90;;;9.27;;
49326;SDS011;35819;44.498;0.166;2022-09-27T18:43:32;23.27;;;8.25;;
49326;SDS011;35819;44.498;0.166;2022-09-27T18:46:01;45.45;;;11.35;;
49326;SDS011;35819;44.498;0.166;2022-09-27T18:48:32;23.48;;;8.63;;
49326;SDS011;35819;44.498;0.166;2022-09-27T18:50:59;24.98;;;8.52;;
49326;SDS011;35819;44.498;0.166;2022-09-27T18:53:31;21.67;;;12.40;;
49326;SDS011;35819;44.498;0.166;2022-09-27T18:56:06;22.60;;;6.63;;
49326;SDS011;35819;44.498;0.166;2022-09-27T18:58:38;25.07;;;8.63;;
49326;SDS011;35819;44.498;0.166;2022-09-27T19:01:06;29.38;;;9.82;;
49326;SDS011;35819;44.498;0.166;2022-09-27T19:03:34;26.42;;;6.95;;
49326;SDS011;35819;44.498;0.166;2022-09-27T19:06:01;23.35;;;6.25;;
49326;SDS011;35819;44.498;0.166;2022-09-27T19:08:28;17.67;;;6.50;;
49326;SDS011;35819;44.498;0.166;2022-09-27T19:10:54;39.33;;;12.18;;
49326;SDS011;35819;44.498;0.166;2022-09-27T19:13:20;34.50;;;8.80;;
49326;SDS011;35819;44.498;0.166;2022-09-27T19:15:53;30.10;;;8.32;;
49326;SDS011;35819;44.498;0.166;2022-09-27T19:18:19;22.60;;;7.97;;
49326;SDS011;35819;44.498;0.166;2022-09-27T19:20:46;33.80;;;10.38;;
49326;SDS011;35819;44.498;0.166;2022-09-27T19:23:11;35.80;;;7.88;;
49326;SDS011;35819;44.498;0.166;2022-09-27T19:25:38;40.38;;;11.57;;
49326;SDS011;35819;44.498;0.166;2022-09-27T19:28:03;19.50;;;7.82;;
49326;SDS011;35819;44.498;0.166;2022-09-27T19:30:29;27.73;;;9.27;;
49326;SDS011;35819;44.498;0.166;2022-09-27T19:32:55;29.95;;;9.90;;
49326;SDS011;35819;44.498;0.166;2022-09-27T19:35:21;36.35;;;12.85;;
49326;SDS011;35819;44.498;0.166;2022-09-27T19:37:46;16.08;;;6.47;;
49326;SDS011;35819;44.498;0.166;2022-09-27T19:40:12;40.25;;;11.63;;
49326;SDS011;35819;44.498;0.166;2022-09-27T19:42:38;23.25;;;7.57;;
49326;SDS011;35819;44.498;0.166;2022-09-27T19:45:03;32.17;;;8.27;;
49326;SDS011;35819;44.498;0.166;2022-09-27T19:47:31;30.40;;;9.80;;
49326;SDS011;35819;44.498;0.166;2022-09-27T19:49:57;36.08;;;14.02;;
49326;SDS011;35819;44.498;0.166;2022-09-27T19:52:23;62.10;;;14.73;;
49326;SDS011;35819;44.498;0.166;2022-09-27T19:54:49;29.05;;;10.55;;
49326;SDS011;35819;44.498;0.166;2022-09-27T19:57:15;21.80;;;7.30;;
49326;SDS011;35819;44.498;0.166;2022-09-27T19:59:42;32.53;;;9.55;;
49326;SDS011;35819;44.498;0.166;2022-09-27T20:02:08;28.38;;;10.50;;
49326;SDS011;35819;44.498;0.166;2022-09-27T20:04:34;21.38;;;11.18;;
49326;SDS011;35819;44.498;0.166;2022-09-27T20:07:00;30.90;;;9.00;;
49326;SDS011;35819;44.498;0.166;2022-09-27T20:09:26;30.55;;;7.28;;
49326;SDS011;35819;44.498;0.166;2022-09-27T20:11:51;34.67;;;7.97;;
49326;SDS011;35819;44.498;0.166;2022-09-27T20:14:17;34.92;;;7.85;;
49326;SDS011;35819;44.498;0.166;2022-09-27T20:16:43;32.42;;;7.45;;
49326;SDS011;35819;44.498;0.166;2022-09-27T20:19:08;33.50;;;9.45;;
49326;SDS011;35819;44.498;0.166;2022-09-27T20:21:35;25.13;;;7.47;;
49326;SDS011;35819;44.498;0.166;2022-09-27T20:24:01;26.48;;;8.00;;
49326;SDS011;35819;44.498;0.166;2022-09-27T20:26:28;17.05;;;7.97;;
49326;SDS011;35819;44.498;0.166;2022-09-27T20:28:56;27.63;;;7.45;;
49326;SDS011;35819;44.498;0.166;2022-09-27T20:31:25;31.30;;;7.03;;
49326;SDS011;35819;44.498;0.166;2022-09-27T20:33:52;31.48;;;9.00;;
49326;SDS011;35819;44.498;0.166;2022-09-27T20:36:28;25.67;;;9.40;;
49326;SDS011;35819;44.498;0.166;2022-09-27T20:38:57;29.65;;;11.57;;
49326;SDS011;35819;44.498;0.166;2022-09-27T20:41:27;27.23;;;5.30;;
49326;SDS011;35819;44.498;0.166;2022-09-27T20:43:57;28.92;;;7.15;;
49326;SDS011;35819;44.498;0.166;2022-09-27T20:46:24;24.17;;;8.65;;
49326;SDS011;35819;44.498;0.166;2022-09-27T20:48:51;32.83;;;9.60;;
49326;SDS011;35819;44.498;0.166;2022-09-27T20:51:19;36.13;;;11.32;;
49326;SDS011;35819;44.498;0.166;2022-09-27T20:53:45;62.70;;;14.75;;
49326;SDS011;35819;44.498;0.166;2022-09-27T20:56:16;24.15;;;6.15;;
49326;SDS011;35819;44.498;0.166;2022-09-27T20:58:50;29.48;;;12.98;;
49326;SDS011;35819;44.498;0.166;2022-09-27T21:01:17;36.55;;;10.77;;
49326;SDS011;35819;44.498;0.166;2022-09-27T21:03:44;24.48;;;8.00;;
49326;SDS011;35819;44.498;0.166;2022-09-27T21:06:10;34.95;;;11.90;;
49326;SDS011;35819;44.498;0.166;2022-09-27T21:08:40;25.38;;;7.63;;
49326;SDS011;35819;44.498;0.166;2022-09-27T21:11:07;40.70;;;10.73;;
49326;SDS011;35819;44.498;0.166;2022-09-27T21:13:35;36.42;;;10.40;;
49326;SDS011;35819;44.498;0.166;2022-09-27T21:16:03;26.05;;;7.82;;
49326;SDS011;35819;44.498;0.166;2022-09-27T21:18:43;21.02;;;5.60;;
49326;SDS011;35819;44.498;0.166;2022-09-27T21:21:10;29.63;;;10.65;;
49326;SDS011;35819;44.498;0.166;2022-09-27T21:23:37;26.42;;;6.25;;
49326;SDS011;35819;44.498;0.166;2022-09-27T21:28:35;29.38;;;9.27;;
49326;SDS011;35819;44.498;0.166;2022-09-27T21:31:02;23.23;;;6.82;;
49326;SDS011;35819;44.498;0.166;2022-09-27T21:33:29;21.30;;;8.13;;
49326;SDS011;35819;44.498;0.166;2022-09-27T21:35:55;36.45;;;9.98;;
49326;SDS011;35819;44.498;0.166;2022-09-27T21:38:21;19.40;;;4.72;;
49326;SDS011;35819;44.498;0.166;2022-09-27T21:40:56;19.42;;;6.70;;
49326;SDS011;35819;44.498;0.166;2022-09-27T21:43:28;19.40;;;6.32;;
49326;SDS011;35819;44.498;0.166;2022-09-27T21:46:17;26.10;;;5.57;;
49326;SDS011;35819;44.498;0.166;2022-09-27T21:48:45;17.73;;;5.65;;
49326;SDS011;35819;44.498;0.166;2022-09-27T21:56:12;21.13;;;8.23;;
49326;SDS011;35819;44.498;0.166;2022-09-27T21:58:38;15.70;;;7.38;;
49326;SDS011;35819;44.498;0.166;2022-09-27T22:01:05;9.82;;;2.90;;
49326;SDS011;35819;44.498;0.166;2022-09-27T22:03:34;13.15;;;3.53;;
49326;SDS011;35819;44.498;0.166;2022-09-27T22:06:00;18.85;;;4.90;;
49326;SDS011;35819;44.498;0.166;2022-09-27T22:08:26;22.45;;;7.13;;
49326;SDS011;35819;44.498;0.166;2022-09-27T22:10:53;12.75;;;3.58;;
49326;SDS011;35819;44.498;0.166;2022-09-27T22:13:20;10.25;;;2.70;;
49326;SDS011;35819;44.498;0.166;2022-09-27T22:15:46;15.25;;;3.08;;
49326;SDS011;35819;44.498;0.166;2022-09-27T22:18:14;9.98;;;2.40;;
49326;SDS011;35819;44.498;0.166;2022-09-27T22:20:41;16.35;;;3.38;;
49326;SDS011;35819;44.498;0.166;2022-09-27T22:23:07;12.20;;;2.22;;
49326;SDS011;35819;44.498;0.166;2022-09-27T22:25:33;6.20;;;2.25;;
49326;SDS011;35819;44.498;0.166;2022-09-27T22:27:59;13.15;;;2.25;;
49326;SDS011;35819;44.498;0.166;2022-09-27T22:30:25;12.18;;;1.65;;
49326;SDS011;35819;44.498;0.166;2022-09-27T22:32:51;4.88;;;1.80;;
49326;SDS011;35819;44.498;0.166;2022-09-27T22:35:17;10.52;;;2.50;;
49326;SDS011;35819;44.498;0.166;2022-09-27T22:37:43;3.15;;;0.70;;
49326;SDS011;35819;44.498;0.166;2022-09-27T22:40:09;3.00;;;0.40;;
49326;SDS011;35819;44.498;0.166;2022-09-27T22:42:35;1.88;;;1.40;;
49326;SDS011;35819;44.498;0.166;2022-09-27T22:45:01;2.78;;;0.95;;
49326;SDS011;35819;44.498;0.166;2022-09-27T22:47:28;2.55;;;2.33;;
49326;SDS011;35819;44.498;0.166;2022-09-27T22:49:54;8.20;;;3.20;;
49326;SDS011;35819;44.498;0.166;2022-09-27T22:52:21;1.08;;;0.60;;
49326;SDS011;35819;44.498;0.166;2022-09-27T22:54:47;0.95;;;0.55;;
49326;SDS011;35819;44.498;0.166;2022-09-27T22:57:12;4.95;;;2.38;;
49326;SDS011;35819;44.498;0.166;2022-09-27T22:59:38;7.95;;;0.98;;
49326;SDS011;35819;44.498;0.166;2022-09-27T23:02:04;8.43;;;3.97;;
49326;SDS011;35819;44.498;0.166;2022-09-27T23:04:30;4.70;;;1.75;;
49326;SDS011;35819;44.498;0.166;2022-09-27T23:06:55;4.30;;;1.95;;
49326;SDS011;35819;44.498;0.166;2022-09-27T23:09:21;7.82;;;1.50;;
49326;SDS011;35819;44.498;0.166;2022-09-27T23:11:47;8.05;;;1.85;;
49326;SDS011;35819;44.498;0.166;2022-09-27T23:14:12;4.40;;;0.95;;
49326;SDS011;35819;44.498;0.166;2022-09-27T23:16:39;2.97;;;1.80;;
49326;SDS011;35819;44.498;0.166;2022-09-27T23:19:05;1.85;;;0.75;;
49326;SDS011;35819;44.498;0.166;2022-09-27T23:21:32;11.77;;;2.88;;
49326;SDS011;35819;44.498;0.166;2022-09-27T23:23:58;3.05;;;1.27;;
49326;SDS011;35819;44.498;0.166;2022-09-27T23:26:26;3.95;;;2.50;;
49326;SDS011;35819;44.498;0.166;2022-09-27T23:28:56;3.53;;;2.47;;
49326;SDS011;35819;44.498;0.166;2022-09-27T23:31:24;1.30;;;0.77;;
49326;SDS011;35819;44.498;0.166;2022-09-27T23:33:53;5.65;;;0.90;;
49326;SDS011;35819;44.498;0.166;2022-09-27T23:36:21;10.57;;;2.38;;
49326;SDS011;35819;44.498;0.166;2022-09-27T23:38:51;4.68;;;1.38;;
49326;SDS011;35819;44.498;0.166;2022-09-27T23:41:18;2.72;;;1.10;;
49326;SDS011;35819;44.498;0.166;2022-09-27T23:43:45;13.40;;;3.15;;
49326;SDS011;35819;44.498;0.166;2022-09-27T23:46:12;5.78;;;2.13;;
49326;SDS011;35819;44.498;0.166;2022-09-27T23:48:39;4.85;;;1.55;;
49326;SDS011;35819;44.498;0.166;2022-09-27T23:51:05;19.08;;;2.92;;
49326;SDS011;35819;44.498;0.166;2022-09-27T23:53:33;8.20;;;2.30;;
49326;SDS011;35819;44.498;0.166;2022-09-27T23:56:03;5.57;;;1.23;;
49326;SDS011;35819;44.498;0.166;2022-09-27T23:58:31;68.78;;;6.50;;
